Time;durP1;ratioP1;P1;durP2;ratioP2;P2;SDS_P1;SDS_P2;PMS_P1;PMS_P2;Temp;Humidity;BMP_temperature;BMP_pressure;BME280_temperature;BME280_humidity;BME280_pressure;Samples;Min_cycle;Max_cycle;Signal;HPM_P1;HPM_P2
2021/05/10 00:00:19;;;;;;;5.55;1.40;;;;;;;15.54;29.80;94295.41;4982069;28;20115;-78
2021/05/10 00:02:45;;;;;;;5.32;1.60;;;;;;;15.58;30.06;94287.81;4983579;28;20099;-78
2021/05/10 00:05:11;;;;;;;3.33;1.40;;;;;;;15.63;30.40;94292.72;4962869;28;20484;-78
2021/05/10 00:07:36;;;;;;;4.65;1.60;;;;;;;15.66;30.86;94297.25;4986914;28;20148;-77
2021/05/10 00:10:02;;;;;;;7.03;4.10;;;;;;;15.42;29.97;94295.53;4983562;28;20083;-77
2021/05/10 00:12:28;;;;;;;4.13;2.95;;;;;;;15.31;30.64;94299.47;4966471;28;20546;-77
2021/05/10 00:14:53;;;;;;;5.05;2.03;;;;;;;15.21;30.95;94292.44;4984626;28;20094;-78
2021/05/10 00:17:19;;;;;;;2.97;2.33;;;;;;;15.19;31.07;94296.84;4969127;28;20619;-77
2021/05/10 00:19:44;;;;;;;3.08;1.88;;;;;;;15.12;31.38;94303.34;4987773;28;20109;-77
2021/05/10 00:22:10;;;;;;;5.82;3.90;;;;;;;15.11;30.97;94296.38;4985948;28;20113;-77
2021/05/10 00:24:35;;;;;;;4.60;2.85;;;;;;;15.08;30.88;94294.56;4984384;28;20093;-77
2021/05/10 00:27:01;;;;;;;7.78;3.38;;;;;;;15.15;31.03;94290.78;4984157;28;20150;-77
2021/05/10 00:29:26;;;;;;;1.60;1.40;;;;;;;15.38;31.31;94303.84;4987881;28;20476;-78
2021/05/10 00:31:51;;;;;;;2.42;1.70;;;;;;;15.36;31.40;94298.84;4972230;28;20777;-77
2021/05/10 00:34:17;;;;;;;2.05;1.67;;;;;;;15.30;31.70;94310.78;4976805;28;20167;-77
2021/05/10 00:36:43;;;;;;;5.07;2.53;;;;;;;15.22;31.44;94312.28;4983998;28;20067;-77
2021/05/10 00:39:08;;;;;;;5.78;3.80;;;;;;;15.16;30.79;94317.59;4983914;28;20106;-77
2021/05/10 00:41:34;;;;;;;6.40;2.30;;;;;;;14.98;32.17;94315.53;4984600;28;20425;-77
2021/05/10 00:43:59;;;;;;;5.40;2.15;;;;;;;15.00;32.18;94312.41;4984699;28;20107;-77
2021/05/10 00:46:25;;;;;;;2.90;2.40;;;;;;;14.91;32.46;94304.94;4967375;28;20122;-77
2021/05/10 00:48:50;;;;;;;6.30;4.72;;;;;;;14.90;31.56;94305.38;4982546;28;20534;-77
2021/05/10 00:51:16;;;;;;;5.60;3.03;;;;;;;14.69;33.28;94304.22;4948852;28;20126;-77
2021/05/10 00:53:42;;;;;;;4.72;2.97;;;;;;;14.98;32.69;94312.06;4984032;28;20086;-77
2021/05/10 00:56:07;;;;;;;3.10;1.67;;;;;;;14.98;31.25;94318.28;4985048;28;20106;-77
2021/05/10 00:58:32;;;;;;;4.50;1.60;;;;;;;15.44;31.43;94312.19;4970137;28;20103;-77
2021/05/10 01:00:58;;;;;;;4.57;1.70;;;;;;;15.42;31.46;94306.44;4984463;28;20086;-77
2021/05/10 01:03:24;;;;;;;3.70;1.70;;;;;;;15.64;31.49;94309.84;4969985;28;20565;-77
2021/05/10 01:05:49;;;;;;;4.78;1.98;;;;;;;15.72;31.74;94311.03;4983888;28;20121;-77
2021/05/10 01:08:15;;;;;;;7.25;4.10;;;;;;;15.49;31.77;94297.97;4982901;28;20114;-77
2021/05/10 01:10:41;;;;;;;4.70;1.80;;;;;;;15.69;31.74;94301.03;4951464;28;20114;-77
2021/05/10 01:13:06;;;;;;;3.90;1.83;;;;;;;15.77;31.07;94283.16;4984303;28;20090;-77
2021/05/10 01:15:31;;;;;;;2.30;1.60;;;;;;;15.88;31.34;94283.47;4950822;28;20611;-77
2021/05/10 01:17:57;;;;;;;3.28;1.70;;;;;;;15.94;32.14;94287.09;4982615;28;20467;-77
2021/05/10 01:20:23;;;;;;;3.65;2.67;;;;;;;15.85;31.26;94278.91;4967361;28;20079;-77
2021/05/10 01:22:52;;;;;;;3.63;1.58;;;;;;;15.92;31.36;94277.84;4983454;28;20510;-77
2021/05/10 01:25:22;;;;;;;3.15;2.55;;;;;;;15.87;31.70;94248.44;4984275;28;20560;-77
2021/05/10 01:27:48;;;;;;;8.45;2.92;;;;;;;15.77;32.18;94222.38;4982638;28;20671;-77
2021/05/10 01:30:24;;;;;;;3.03;2.08;;;;;;;15.82;31.76;94206.16;4982427;28;20091;-77
2021/05/10 01:32:50;;;;;;;3.20;1.58;;;;;;;15.90;33.83;94214.78;4967675;28;20082;-77
2021/05/10 01:35:17;;;;;;;3.78;2.22;;;;;;;15.78;33.85;94208.31;4967115;28;20511;-77
2021/05/10 01:37:43;;;;;;;2.28;1.83;;;;;;;15.60;34.09;94200.13;4965947;28;20125;-77
2021/05/10 01:40:08;;;;;;;1.92;1.67;;;;;;;15.57;34.87;94204.50;4965526;28;20165;-77
2021/05/10 01:42:34;;;;;;;3.22;1.70;;;;;;;15.64;34.65;94219.81;4981880;28;20574;-77
2021/05/10 01:45:00;;;;;;;4.53;2.40;;;;;;;15.58;35.47;94218.88;4983257;28;20280;-77
2021/05/10 01:47:25;;;;;;;7.57;2.47;;;;;;;15.23;35.35;94221.91;4966606;28;20571;-77
2021/05/10 01:49:51;;;;;;;7.80;2.92;;;;;;;15.05;35.57;94216.41;4981972;28;20468;-77
2021/05/10 01:52:16;;;;;;;5.85;1.98;;;;;;;14.92;36.62;94208.38;4966683;28;20133;-77
2021/05/10 01:54:49;;;;;;;6.38;3.25;;;;;;;14.89;36.00;94220.16;4947308;28;20564;-77
2021/05/10 01:57:15;;;;;;;4.07;1.80;;;;;;;14.91;36.14;94220.50;4982985;28;20086;-76
2021/05/10 01:59:41;;;;;;;6.57;1.83;;;;;;;14.98;35.48;94219.44;4986841;28;20590;-77
2021/05/10 02:02:06;;;;;;;6.72;2.25;;;;;;;15.07;34.84;94217.50;4968014;28;20079;-77
2021/05/10 02:05:10;;;;;;;6.72;1.98;;;;;;;15.09;35.43;94208.88;4967296;28;20078;-77
2021/05/10 02:07:37;;;;;;;3.17;1.80;;;;;;;15.15;35.42;94215.25;4981306;28;20225;-77
2021/05/10 02:10:05;;;;;;;1.80;1.57;;;;;;;15.20;35.48;94216.59;4949401;28;20831;-77
2021/05/10 02:12:30;;;;;;;1.95;1.63;;;;;;;15.23;35.44;94224.63;4983169;28;20083;-77
2021/05/10 02:14:56;;;;;;;7.70;2.70;;;;;;;15.25;34.94;94221.47;4950042;28;20109;-77
2021/05/10 02:17:21;;;;;;;9.02;2.30;;;;;;;15.03;35.95;94214.16;4982230;28;20107;-76
2021/05/10 02:19:46;;;;;;;7.97;2.65;;;;;;;15.02;34.79;94209.16;4965966;28;20118;-76
2021/05/10 02:22:12;;;;;;;10.10;2.47;;;;;;;15.06;35.60;94205.06;4951485;28;20106;-77
2021/05/10 02:24:37;;;;;;;10.90;3.85;;;;;;;15.00;35.88;94187.81;4962475;28;20427;-77
2021/05/10 02:27:04;;;;;;;9.13;3.78;;;;;;;14.95;34.89;94184.94;4962842;28;20190;-77
2021/05/10 02:29:30;;;;;;;3.33;1.90;;;;;;;15.10;35.87;94180.41;4950459;28;20096;-77
2021/05/10 02:31:55;;;;;;;1.90;1.52;;;;;;;15.22;35.14;94189.63;4979962;28;20103;-77
2021/05/10 02:34:21;;;;;;;7.57;3.30;;;;;;;14.98;35.50;94182.03;4950034;28;20112;-77
2021/05/10 02:36:46;;;;;;;17.45;5.63;;;;;;;14.69;34.28;94181.69;4966643;28;20074;-77
2021/05/10 02:39:12;;;;;;;6.38;2.20;;;;;;;15.01;35.37;94192.06;4983012;28;20110;-77
2021/05/10 02:41:37;;;;;;;19.65;7.10;;;;;;;14.96;34.83;94165.41;4984098;28;20459;-79
2021/05/10 02:44:03;;;;;;;6.72;2.20;;;;;;;15.16;36.36;94159.53;4984280;28;20095;-77
2021/05/10 02:46:29;;;;;;;3.05;2.20;;;;;;;15.27;36.94;94170.72;4963872;28;20659;-77
2021/05/10 02:48:54;;;;;;;3.30;1.85;;;;;;;15.21;36.36;94182.69;4983896;28;20210;-77
2021/05/10 02:51:20;;;;;;;4.22;1.75;;;;;;;15.15;36.47;94187.25;4982606;28;20180;-77
2021/05/10 02:53:45;;;;;;;4.45;2.58;;;;;;;15.02;36.86;94190.84;4984473;28;20283;-77
2021/05/10 02:56:11;;;;;;;4.35;2.08;;;;;;;15.05;37.09;94181.75;4966885;28;20169;-77
2021/05/10 02:58:36;;;;;;;3.53;1.45;;;;;;;15.04;39.15;94185.69;4973592;28;20107;-77
2021/05/10 03:01:02;;;;;;;7.22;3.03;;;;;;;15.07;37.73;94190.25;4989057;28;20524;-77
2021/05/10 03:03:27;;;;;;;21.85;6.43;;;;;;;14.69;35.48;94185.16;4993955;28;20098;-77
2021/05/10 03:05:53;;;;;;;23.30;7.03;;;;;;;14.63;36.94;94195.13;4994661;28;20091;-76
2021/05/10 03:08:18;;;;;;;12.80;4.05;;;;;;;14.48;36.69;94197.63;4990263;28;20706;-79
2021/05/10 03:10:44;;;;;;;6.13;2.92;;;;;;;14.89;35.09;94194.91;4992394;28;20106;-76
2021/05/10 03:13:09;;;;;;;14.73;5.40;;;;;;;14.68;35.57;94205.44;4993252;28;20085;-76
2021/05/10 03:15:34;;;;;;;4.60;1.98;;;;;;;14.87;35.77;94221.84;4992130;28;20467;-79
2021/05/10 03:18:00;;;;;;;4.55;1.75;;;;;;;14.91;35.63;94228.69;4992831;28;20480;-79
2021/05/10 03:20:25;;;;;;;3.70;1.80;;;;;;;14.87;36.15;94227.28;4992688;28;20098;-79
2021/05/10 03:22:54;;;;;;;10.40;4.43;;;;;;;14.74;36.46;94214.50;4992438;28;20110;-77
2021/05/10 03:25:20;;;;;;;16.60;5.80;;;;;;;14.66;36.31;94215.25;4991874;28;20098;-77
2021/05/10 03:27:46;;;;;;;5.85;2.10;;;;;;;14.51;37.98;94202.19;4973688;28;20095;-77
2021/05/10 03:30:14;;;;;;;18.42;6.40;;;;;;;14.40;38.16;94168.41;4975117;28;20083;-77
2021/05/10 03:32:39;;;;;;;;;;;;;;;13.86;38.25;94181.28;4959385;28;20082;-76
2021/05/10 03:35:05;;;;;;;7.65;2.40;;;;;;;14.04;39.95;94191.53;4975088;28;19990;-77
2021/05/10 03:37:31;;;;;;;4.65;2.13;;;;;;;13.99;39.15;94192.84;4993967;28;20086;-79
2021/05/10 03:39:57;;;;;;;9.30;4.10;;;;;;;13.91;38.19;94207.16;4993403;28;20145;-77
2021/05/10 03:42:22;;;;;;;7.50;2.08;;;;;;;13.89;38.94;94210.34;4975650;28;20129;-77
2021/05/10 03:44:48;;;;;;;2.05;1.65;;;;;;;13.96;39.09;94214.75;4977587;28;20129;-77
2021/05/10 03:47:13;;;;;;;2.97;1.90;;;;;;;13.99;38.61;94217.34;4991743;28;20099;-79
2021/05/10 03:49:39;;;;;;;3.22;1.98;;;;;;;14.03;38.57;94211.75;4975903;28;20126;-79
2021/05/10 03:52:04;;;;;;;11.98;4.85;;;;;;;13.89;37.69;94209.59;4991934;28;20495;-79
2021/05/10 03:54:29;;;;;;;3.72;2.10;;;;;;;13.92;37.81;94206.72;4975211;28;20627;-77
2021/05/10 03:56:55;;;;;;;4.60;2.75;;;;;;;13.92;37.67;94225.75;4992063;28;20579;-77
2021/05/10 03:59:20;;;;;;;5.75;3.30;;;;;;;13.83;38.16;94222.22;4998261;28;20099;-77
2021/05/10 04:01:46;;;;;;;8.02;3.40;;;;;;;13.81;37.57;94230.84;4993392;28;20094;-77
2021/05/10 04:04:47;;;;;;;15.18;6.60;;;;;;;13.62;36.57;94234.63;4991488;28;20106;-77
2021/05/10 04:14:37;;;;;;;6.50;2.20;;;;;;;14.19;36.39;94257.81;4986558;28;20186;-78
2021/05/10 04:17:03;;;;;;;4.28;2.58;;;;;;;14.25;36.02;94263.47;4990946;28;20391;-77
2021/05/10 04:19:28;;;;;;;6.15;2.13;;;;;;;14.41;36.83;94273.38;4991376;28;20157;-77
2021/05/10 04:21:54;;;;;;;10.63;5.18;;;;;;;14.16;36.50;94282.47;4990696;28;20102;-77
2021/05/10 04:24:19;;;;;;;4.35;2.90;;;;;;;14.04;36.47;94286.75;4975337;28;20539;-77
2021/05/10 04:26:44;;;;;;;8.82;4.57;;;;;;;14.26;35.64;94278.59;4990373;28;20129;-77
2021/05/10 04:29:10;;;;;;;2.58;1.90;;;;;;;14.48;35.24;94281.28;4959766;28;20093;-78
2021/05/10 04:31:35;;;;;;;4.95;2.53;;;;;;;14.58;35.57;94282.81;4990513;28;20120;-78
2021/05/10 04:34:01;;;;;;;8.52;3.85;;;;;;;14.73;35.28;94299.38;4991164;28;20141;-78
2021/05/10 04:36:26;;;;;;;3.08;1.83;;;;;;;14.36;35.06;94287.56;4990941;28;20689;-77
2021/05/10 04:38:52;;;;;;;5.88;2.00;;;;;;;13.60;37.24;94294.88;4992369;28;20556;-76
2021/05/10 04:41:17;;;;;;;3.53;2.08;;;;;;;14.22;36.27;94300.50;4991237;28;20082;-76
2021/05/10 04:43:42;;;;;;;6.70;2.03;;;;;;;14.57;35.35;94319.44;4990630;28;20153;-78
2021/05/10 04:46:08;;;;;;;3.97;2.30;;;;;;;14.59;35.75;94314.28;4957183;28;20105;-78
2021/05/10 04:48:33;;;;;;;3.65;1.80;;;;;;;15.10;34.68;94313.94;4990938;28;20141;-76
2021/05/10 04:50:59;;;;;;;4.03;1.80;;;;;;;15.42;33.88;94314.63;4991890;28;20110;-78
2021/05/10 04:53:24;;;;;;;2.05;1.70;;;;;;;15.44;33.84;94328.56;4992474;28;20079;-78
2021/05/10 04:55:50;;;;;;;4.65;2.00;;;;;;;15.12;35.05;94344.22;4974238;28;20568;-77
2021/05/10 04:58:15;;;;;;;10.43;3.92;;;;;;;15.19;34.44;94338.47;4977714;28;20098;-79
2021/05/10 05:00:41;;;;;;;5.68;1.77;;;;;;;15.24;35.22;94331.69;4990517;28;20083;-77
2021/05/10 05:03:06;;;;;;;3.42;1.90;;;;;;;15.32;35.43;94336.41;4989982;28;20685;-77
2021/05/10 05:05:32;;;;;;;4.10;1.92;;;;;;;14.71;36.78;94343.41;4990016;28;20098;-77
2021/05/10 05:07:57;;;;;;;6.05;3.42;;;;;;;14.83;36.55;94344.53;4990099;28;20122;-77
2021/05/10 05:10:22;;;;;;;3.83;2.50;;;;;;;15.01;36.57;94352.06;4990074;28;20102;-77
2021/05/10 05:12:51;;;;;;;4.95;3.17;;;;;;;15.12;36.12;94358.59;4990493;28;20196;-77
2021/05/10 05:15:17;;;;;;;5.00;1.90;;;;;;;15.18;35.59;94366.94;4989488;28;20094;-79
2021/05/10 05:17:42;;;;;;;5.90;3.08;;;;;;;14.78;36.75;94366.91;4956589;28;20130;-77
2021/05/10 05:20:08;;;;;;;8.02;3.65;;;;;;;14.63;37.12;94369.38;4991141;28;20149;-78
2021/05/10 05:22:37;;;;;;;4.05;1.70;;;;;;;14.95;36.42;94367.47;4989222;28;20198;-77
2021/05/10 05:25:04;;;;;;;10.02;3.25;;;;;;;14.91;36.20;94359.44;4989442;28;20133;-77
2021/05/10 05:27:29;;;;;;;3.65;1.90;;;;;;;15.02;37.31;94364.47;4957028;28;20551;-77
2021/05/10 05:29:55;;;;;;;4.72;2.08;;;;;;;13.94;38.35;94369.47;4974138;28;20086;-77
2021/05/10 05:32:22;;;;;;;7.45;2.65;;;;;;;14.71;37.55;94384.25;4972970;28;20141;-77
2021/05/10 05:34:48;;;;;;;4.43;1.83;;;;;;;14.96;37.30;94386.09;4989452;28;20122;-77
2021/05/10 05:37:13;;;;;;;5.28;2.53;;;;;;;15.15;37.37;94392.38;4990697;28;20101;-77
2021/05/10 05:39:39;;;;;;;4.00;1.90;;;;;;;15.23;37.29;94396.34;4990618;28;20506;-77
2021/05/10 05:42:05;;;;;;;4.63;2.58;;;;;;;15.18;37.59;94388.00;4972944;28;20078;-77
2021/05/10 05:44:34;;;;;;;4.18;2.10;;;;;;;15.26;37.29;94391.97;4989380;28;20804;-77
2021/05/10 05:47:01;;;;;;;4.40;2.58;;;;;;;15.20;37.24;94389.06;4989626;28;20130;-77
2021/05/10 05:49:27;;;;;;;5.20;2.00;;;;;;;14.86;37.05;94392.69;4989236;28;20119;-77
2021/05/10 05:51:52;;;;;;;3.67;2.25;;;;;;;14.99;36.92;94398.06;4988672;28;20456;-77
2021/05/10 05:54:18;;;;;;;3.60;2.28;;;;;;;14.97;38.04;94392.28;4972858;28;20175;-77
2021/05/10 05:56:43;;;;;;;4.57;1.92;;;;;;;15.08;37.20;94396.13;4972961;28;20117;-77
2021/05/10 05:59:09;;;;;;;3.47;2.10;;;;;;;15.14;37.11;94396.28;4978569;28;20106;-77
2021/05/10 06:01:34;;;;;;;3.33;2.00;;;;;;;15.29;37.10;94405.44;4989257;28;20087;-77
2021/05/10 06:04:00;;;;;;;3.13;1.80;;;;;;;15.13;37.83;94403.72;4989193;28;20590;-77
2021/05/10 06:06:25;;;;;;;4.25;1.50;;;;;;;15.29;37.77;94407.41;4971224;28;20114;-77
2021/05/10 06:08:53;;;;;;;4.57;3.40;;;;;;;15.21;37.82;94403.44;4990003;28;20090;-77
2021/05/10 06:11:18;;;;;;;9.57;6.22;;;;;;;15.07;36.69;94410.22;4988660;28;20142;-77
2021/05/10 06:13:44;;;;;;;4.03;2.50;;;;;;;14.62;37.43;94418.84;4990149;28;20086;-77
2021/05/10 06:16:09;;;;;;;7.15;4.47;;;;;;;14.47;39.03;94411.19;4988767;28;20098;-77
2021/05/10 06:18:35;;;;;;;6.50;2.30;;;;;;;14.54;37.82;94424.56;4988616;28;20102;-77
2021/05/10 06:21:01;;;;;;;5.57;2.65;;;;;;;14.84;36.75;94417.63;4973397;28;20093;-77
2021/05/10 06:23:27;;;;;;;6.72;4.65;;;;;;;14.70;36.67;94417.41;4987859;28;20103;-76
2021/05/10 06:25:52;;;;;;;8.95;4.85;;;;;;;14.51;37.59;94419.22;4972887;28;20102;-77
2021/05/10 06:28:17;;;;;;;20.88;15.52;;;;;;;14.25;36.36;94421.31;4989899;28;20587;-77
2021/05/10 06:30:43;;;;;;;17.10;11.15;;;;;;;14.23;37.10;94440.03;4956532;28;20555;-77
2021/05/10 06:33:08;;;;;;;9.10;6.43;;;;;;;14.26;37.85;94442.63;4990268;28;20424;-76
2021/05/10 06:35:34;;;;;;;13.85;8.25;;;;;;;14.35;37.67;94441.94;4972088;28;20499;-77
2021/05/10 06:37:59;;;;;;;4.32;2.08;;;;;;;14.45;37.02;94424.50;4972261;28;20556;-76
2021/05/10 06:40:25;;;;;;;14.07;10.90;;;;;;;14.02;36.87;94422.44;4989634;28;20145;-76
2021/05/10 06:42:50;;;;;;;24.52;20.88;;;;;;;14.36;35.89;94408.09;4989052;28;20153;-78
2021/05/10 06:45:16;;;;;;;25.55;19.77;;;;;;;14.67;35.43;94408.16;4989217;28;20520;-77
2021/05/10 06:47:42;;;;;;;7.32;3.20;;;;;;;14.99;36.98;94411.69;4988144;28;20192;-76
2021/05/10 06:50:08;;;;;;;8.95;6.30;;;;;;;15.09;36.90;94402.34;4989931;28;20114;-76
2021/05/10 06:52:34;;;;;;;8.32;5.35;;;;;;;15.35;36.80;94400.16;4988773;28;20120;-77
2021/05/10 06:54:59;;;;;;;3.00;1.70;;;;;;;15.62;36.41;94391.31;4989697;28;20102;-77
2021/05/10 06:57:25;;;;;;;10.90;6.75;;;;;;;15.29;35.75;94396.50;4989297;28;20087;-77
2021/05/10 06:59:50;;;;;;;4.88;3.70;;;;;;;15.29;36.79;94407.41;4988204;28;20109;-77
2021/05/10 07:02:16;;;;;;;3.50;2.63;;;;;;;15.09;37.15;94392.22;4972117;28;20106;-77
2021/05/10 07:04:41;;;;;;;12.10;8.05;;;;;;;15.43;36.20;94401.41;4972802;28;20527;-77
2021/05/10 07:07:07;;;;;;;6.95;4.53;;;;;;;15.36;36.39;94380.63;4969591;28;20115;-76
2021/05/10 07:09:32;;;;;;;5.00;2.83;;;;;;;15.35;36.19;94389.25;4988739;28;20078;-77
2021/05/10 07:11:59;;;;;;;14.93;9.55;;;;;;;15.85;36.07;94407.13;4988570;28;20102;-77
2021/05/10 07:14:25;;;;;;;6.78;1.90;;;;;;;15.08;36.73;94406.28;4968722;28;20149;-78
2021/05/10 07:16:50;;;;;;;4.28;1.67;;;;;;;15.73;35.90;94396.38;4988387;28;20178;-77
2021/05/10 07:19:16;;;;;;;5.95;2.05;;;;;;;15.41;36.04;94398.38;4956165;28;20106;-77
2021/05/10 07:21:41;;;;;;;4.22;1.70;;;;;;;15.37;36.35;94400.47;4988037;28;20082;-77
2021/05/10 07:24:07;;;;;;;3.75;2.00;;;;;;;14.83;38.44;94391.59;4971847;28;20110;-77
2021/05/10 07:26:32;;;;;;;13.65;7.15;;;;;;;15.83;34.95;94392.44;4986587;28;20138;-77
2021/05/10 07:28:58;;;;;;;6.03;3.30;;;;;;;15.73;36.10;94393.63;4972618;28;20086;-77
2021/05/10 07:31:24;;;;;;;5.03;2.58;;;;;;;15.45;35.89;94390.81;4989349;28;20471;-76
2021/05/10 07:33:51;;;;;;;3.63;1.48;;;;;;;14.67;37.06;94404.66;4989907;28;20439;-77
2021/05/10 07:36:16;;;;;;;7.53;1.40;;;;;;;15.46;35.64;94411.44;4971782;28;20491;-76
2021/05/10 07:38:42;;;;;;;3.45;1.60;;;;;;;14.48;36.81;94404.53;4988892;28;20170;-76
2021/05/10 07:41:07;;;;;;;9.25;3.05;;;;;;;15.29;35.11;94401.97;4971577;28;20141;-77
2021/05/10 07:43:32;;;;;;;3.85;1.50;;;;;;;15.17;35.55;94398.16;4971269;28;20107;-76
2021/05/10 07:45:58;;;;;;;3.22;1.20;;;;;;;15.49;35.53;94415.97;4990927;28;20099;-77
2021/05/10 07:48:23;;;;;;;3.35;1.48;;;;;;;15.78;34.41;94417.56;4991079;28;20114;-77
2021/05/10 07:50:49;;;;;;;2.50;1.80;;;;;;;15.94;34.57;94431.72;4991989;28;20629;-77
2021/05/10 07:53:15;;;;;;;3.42;1.55;;;;;;;15.68;34.73;94439.38;4974268;28;20098;-77
2021/05/10 07:55:40;;;;;;;3.00;1.30;;;;;;;15.77;33.99;94429.69;4973201;28;20095;-77
2021/05/10 07:58:06;;;;;;;1.75;1.30;;;;;;;16.02;34.16;94440.38;4997312;28;20507;-77
2021/05/10 08:00:34;;;;;;;3.60;1.10;;;;;;;15.94;32.71;94466.44;4959960;28;20503;-77
2021/05/10 08:03:10;;;;;;;3.33;1.08;;;;;;;15.90;32.72;94460.34;4991449;28;20570;-76
2021/05/10 08:05:36;;;;;;;1.65;1.25;;;;;;;16.31;31.35;94447.38;4992002;28;20083;-77
2021/05/10 08:08:01;;;;;;;3.30;1.08;;;;;;;15.91;32.90;94448.22;4991016;28;20107;-77
2021/05/10 08:10:27;;;;;;;2.78;2.10;;;;;;;14.91;34.62;94457.50;4992424;28;20157;-77
2021/05/10 08:12:52;;;;;;;2.90;1.20;;;;;;;15.15;33.94;94446.13;4975321;28;20094;-77
2021/05/10 08:15:18;;;;;;;8.48;6.05;;;;;;;14.49;35.19;94424.34;4990421;28;20103;-77
2021/05/10 08:17:43;;;;;;;8.18;2.80;;;;;;;15.28;34.28;94398.47;4973849;28;20095;-77
2021/05/10 08:20:09;;;;;;;3.05;1.83;;;;;;;15.57;34.48;94424.63;4990791;28;20107;-77
2021/05/10 08:22:35;;;;;;;2.28;1.58;;;;;;;15.87;33.65;94458.53;4990958;28;20201;-77
2021/05/10 08:25:00;;;;;;;2.00;1.10;;;;;;;15.72;33.52;94444.72;4991812;28;20093;-77
2021/05/10 08:27:26;;;;;;;12.35;8.82;;;;;;;16.32;31.86;94435.22;4992039;28;20118;-79
2021/05/10 08:29:51;;;;;;;2.35;1.02;;;;;;;15.57;34.34;94455.38;4989765;28;20148;-77
2021/05/10 08:32:17;;;;;;;4.78;1.75;;;;;;;15.74;33.48;94444.25;4990154;28;20114;-77
2021/05/10 08:34:42;;;;;;;3.05;1.40;;;;;;;16.03;33.53;94430.22;4990075;28;20443;-77
2021/05/10 08:37:08;;;;;;;7.30;4.60;;;;;;;16.62;32.65;94433.59;4991420;28;20129;-77
2021/05/10 08:39:33;;;;;;;4.68;2.40;;;;;;;16.61;31.31;94434.81;4984040;28;20111;-77
2021/05/10 08:41:59;;;;;;;2.33;1.15;;;;;;;15.97;32.33;94459.31;4973244;28;20079;-76
2021/05/10 08:44:24;;;;;;;7.13;5.80;;;;;;;16.70;31.27;94454.66;4953538;28;20079;-77
2021/05/10 08:46:50;;;;;;;4.15;2.85;;;;;;;15.38;33.30;94440.16;4986903;28;20119;-76
2021/05/10 08:49:20;;;;;;;2.13;1.30;;;;;;;16.10;32.93;94424.47;4969092;28;20583;-77
2021/05/10 08:51:45;;;;;;;4.90;1.48;;;;;;;15.58;33.93;94424.19;4964941;28;20186;-77
2021/05/10 08:54:27;;;;;;;4.20;1.90;;;;;;;15.93;33.17;94437.63;4986747;28;20578;-77
2021/05/10 08:56:53;;;;;;;10.82;5.80;;;;;;;15.70;33.91;94443.63;4971444;28;20070;-77
2021/05/10 08:59:19;;;;;;;7.78;1.27;;;;;;;15.15;34.93;94460.53;4971946;28;20181;-77
2021/05/10 09:01:57;;;;;;;2.22;1.13;;;;;;;15.47;33.31;94485.81;4986097;28;20118;-77
2021/05/10 09:04:36;;;;;;;2.45;1.10;;;;;;;16.29;32.59;94486.06;4981567;28;20128;-77
2021/05/10 09:07:23;;;;;;;5.93;4.30;;;;;;;17.18;31.17;94487.72;4982178;28;20130;-77
2021/05/10 09:09:55;;;;;;;2.10;1.50;;;;;;;16.44;31.88;94494.44;4971273;28;20079;-77
2021/05/10 09:12:22;;;;;;;4.95;1.35;;;;;;;14.94;35.23;94499.44;4986094;28;20158;-77
2021/05/10 09:14:49;;;;;;;2.50;1.85;;;;;;;15.55;33.15;94501.44;4967433;28;20126;-77
2021/05/10 09:17:14;;;;;;;3.85;1.85;;;;;;;15.84;33.40;94503.84;4966734;28;20110;-77
2021/05/10 09:19:54;;;;;;;4.13;2.38;;;;;;;15.86;33.16;94492.50;4983004;28;20107;-76
2021/05/10 09:22:20;;;;;;;3.10;1.35;;;;;;;16.29;32.25;94507.91;4981840;28;20540;-76
2021/05/10 09:24:50;;;;;;;3.20;1.70;;;;;;;16.60;32.33;94496.88;4983696;28;20258;-77
2021/05/10 09:27:22;;;;;;;4.20;1.23;;;;;;;15.95;33.38;94514.34;4967426;28;20214;-77
2021/05/10 09:29:49;;;;;;;1.35;1.08;;;;;;;15.68;32.92;94534.84;4951976;28;20495;-77
2021/05/10 09:32:28;;;;;;;1.35;0.85;;;;;;;16.24;32.60;94530.31;4983584;28;20106;-77
2021/05/10 09:35:27;;;;;;;4.18;0.90;;;;;;;15.91;33.01;94544.50;4984049;28;21533;-76
2021/05/10 09:38:01;;;;;;;1.75;1.10;;;;;;;14.35;35.49;94529.03;4981316;28;20114;-77
2021/05/10 09:40:29;;;;;;;4.95;1.38;;;;;;;13.98;35.87;94539.56;4983131;28;20133;-76
2021/05/10 09:42:55;;;;;;;2.33;1.20;;;;;;;15.03;34.72;94554.75;4982685;28;20470;-76
2021/05/10 09:45:31;;;;;;;2.57;1.10;;;;;;;15.95;33.24;94545.13;4951172;28;20079;-77
2021/05/10 09:48:07;;;;;;;2.05;0.90;;;;;;;15.82;33.15;94569.03;4982053;28;20579;-77
2021/05/10 09:50:33;;;;;;;4.00;1.20;;;;;;;15.63;33.36;94598.19;4983875;28;20599;-77
2021/05/10 09:53:01;;;;;;;1.40;1.17;;;;;;;14.96;34.06;94560.47;4966758;28;20421;-64
2021/05/10 09:55:59;;;;;;;6.38;4.57;;;;;;;15.55;34.12;94574.31;4982268;28;20107;-76
2021/05/10 09:58:36;;;;;;;3.03;0.90;;;;;;;15.20;34.64;94584.53;4963630;28;20118;-76
2021/05/10 10:01:02;;;;;;;;;;;;;;;14.57;34.73;94591.72;4962668;28;20488;-75
2021/05/10 10:03:36;;;;;;;2.58;1.23;;;;;;;14.82;35.03;94583.47;4963671;28;19990;-76
2021/05/10 10:06:09;;;;;;;2.25;1.23;;;;;;;14.75;35.02;94589.19;4967595;28;20101;-75
2021/05/10 10:08:35;;;;;;;5.07;1.17;;;;;;;14.94;35.10;94589.34;4966451;28;20078;-75
2021/05/10 10:11:01;;;;;;;2.97;1.35;;;;;;;14.61;36.02;94564.38;4981771;28;20253;-76
2021/05/10 10:13:27;;;;;;;2.47;1.20;;;;;;;13.48;38.33;94585.75;4965393;28;20158;-76
2021/05/10 10:15:55;;;;;;;3.35;1.08;;;;;;;14.58;36.35;94577.66;4966138;28;20098;-77
2021/05/10 10:18:21;;;;;;;8.38;6.40;;;;;;;15.47;34.53;94584.75;4965617;28;20532;-77
2021/05/10 10:20:47;;;;;;;1.08;1.00;;;;;;;14.98;35.47;94589.97;4981807;28;20087;-76
2021/05/10 10:23:14;;;;;;;1.10;1.00;;;;;;;15.19;35.41;94572.13;4979430;28;20444;-76
2021/05/10 10:25:40;;;;;;;6.30;3.15;;;;;;;15.58;34.54;94592.50;4966878;28;20094;-77
2021/05/10 10:28:06;;;;;;;8.40;5.43;;;;;;;13.88;37.89;94551.53;4966508;28;20559;-76
2021/05/10 10:30:32;;;;;;;9.95;6.38;;;;;;;15.11;35.99;94539.69;4965749;28;20807;-77
2021/05/10 10:33:01;;;;;;;8.33;6.30;;;;;;;15.59;33.83;94515.69;4950618;28;20079;-77
2021/05/10 10:35:27;;;;;;;11.18;7.28;;;;;;;16.04;33.98;94519.84;4981153;28;20134;-77
2021/05/10 10:37:52;;;;;;;6.47;4.55;;;;;;;16.64;33.13;94518.56;4981073;28;20518;-77
2021/05/10 10:40:20;;;;;;;2.08;1.30;;;;;;;17.18;32.53;94545.13;4982252;28;20117;-77
2021/05/10 10:42:45;;;;;;;5.45;3.85;;;;;;;16.56;33.09;94548.16;4982165;28;20658;-77
2021/05/10 10:45:11;;;;;;;10.73;7.85;;;;;;;16.85;32.63;94536.78;4983805;28;20142;-77
2021/05/10 10:48:01;;;;;;;12.38;10.48;;;;;;;17.14;31.17;94517.22;4981997;28;20099;-77
2021/05/10 10:50:29;;;;;;;4.22;3.38;;;;;;;17.57;32.14;94513.28;4981696;28;20140;-77
2021/05/10 10:52:59;;;;;;;0.82;0.82;;;;;;;17.42;32.60;94566.38;4981706;28;20118;-77
2021/05/10 10:55:30;;;;;;;1.92;1.15;;;;;;;17.91;31.74;94601.69;4949985;28;20114;-77
2021/05/10 10:58:22;;;;;;;4.70;1.58;;;;;;;17.47;32.06;94625.94;4989111;28;20082;-77
2021/05/10 11:00:56;;;;;;;4.85;1.30;;;;;;;17.02;33.44;94635.63;4980355;28;20608;-79
2021/05/10 11:03:26;;;;;;;2.22;1.48;;;;;;;16.69;33.54;94625.28;4982602;28;20193;-76
2021/05/10 11:05:52;;;;;;;2.45;1.70;;;;;;;16.88;33.48;94609.66;4967525;28;20705;-77
2021/05/10 11:08:19;;;;;;;1.65;0.85;;;;;;;17.06;32.49;94625.34;4948960;28;20110;-76
2021/05/10 11:10:52;;;;;;;1.50;1.20;;;;;;;16.09;34.32;94633.09;4964332;28;20136;-77
2021/05/10 11:13:29;;;;;;;9.18;5.15;;;;;;;15.86;34.88;94626.19;4950016;28;20082;-74
2021/05/10 11:16:14;;;;;;;4.03;0.80;;;;;;;15.88;34.84;94653.78;4982671;28;20113;-76
2021/05/10 11:18:55;;;;;;;2.90;2.13;;;;;;;15.60;35.97;94663.75;4941433;28;20106;-77
2021/05/10 11:21:21;;;;;;;4.72;1.30;;;;;;;15.28;36.61;94690.16;4980117;28;20221;-77
2021/05/10 11:23:53;;;;;;;1.57;1.20;;;;;;;14.68;36.92;94664.91;4985494;28;20099;-76
2021/05/10 11:26:38;;;;;;;2.47;1.20;;;;;;;14.53;38.08;94654.47;4983728;28;20405;-76
2021/05/10 11:29:07;;;;;;;2.80;1.40;;;;;;;13.89;38.84;94663.81;4983865;28;20642;-76
2021/05/10 11:31:37;;;;;;;3.70;1.23;;;;;;;13.86;40.38;94675.53;4982059;28;20176;-76
2021/05/10 11:34:05;;;;;;;1.30;1.20;;;;;;;13.33;41.65;94680.50;4981846;28;20173;-77
2021/05/10 11:36:32;;;;;;;5.75;1.30;;;;;;;12.29;43.96;94688.44;4962460;28;20181;-71
2021/05/10 11:38:57;;;;;;;1.63;1.00;;;;;;;12.07;44.92;94692.81;4984920;28;20114;-71